sensor_id;sensor_type;location;lat;lon;timestamp;pressure;altitude;pressure_sealevel;temperature;humidity
6136;BME280;24008;42.664;23.372;2022-10-16T00:00:46;95270.22;;;10.46;73.81
6136;BME280;24008;42.664;23.372;2022-10-16T00:03:13;95398.38;;;11.44;73.60
6136;BME280;24008;42.664;23.372;2022-10-16T00:05:41;95406.88;;;11.45;73.00
6136;BME280;24008;42.664;23.372;2022-10-16T00:08:09;95028.97;;;9.07;72.96
6136;BME280;24008;42.664;23.372;2022-10-16T00:10:37;94896.66;;;7.88;73.08
6136;BME280;24008;42.664;23.372;2022-10-16T00:13:05;95244.72;;;10.35;73.06
6136;BME280;24008;42.664;23.372;2022-10-16T00:15:33;95288.91;;;10.47;73.43
6136;BME280;24008;42.664;23.372;2022-10-16T00:18:01;94962.94;;;8.41;73.71
6136;BME280;24008;42.664;23.372;2022-10-16T00:20:28;95410.69;;;11.20;73.29
6136;BME280;24008;42.664;23.372;2022-10-16T00:23:16;95416.03;;;11.17;73.58
6136;BME280;24008;42.664;23.372;2022-10-16T00:25:45;95416.28;;;11.14;73.68
6136;BME280;24008;42.664;23.372;2022-10-16T00:28:20;95421.13;;;11.07;74.17
6136;BME280;24008;42.664;23.372;2022-10-16T00:30:47;94962.97;;;8.19;73.66
6136;BME280;24008;42.664;23.372;2022-10-16T00:33:13;95425.41;;;11.07;74.13
6136;BME280;24008;42.664;23.372;2022-10-16T00:35:40;95421.13;;;11.07;74.00
6136;BME280;24008;42.664;23.372;2022-10-16T00:38:07;95428.91;;;11.06;73.82
6136;BME280;24008;42.664;23.372;2022-10-16T00:40:33;95331.03;;;10.32;73.74
6136;BME280;24008;42.664;23.372;2022-10-16T00:43:02;95432.13;;;10.98;74.09
6136;BME280;24008;42.664;23.372;2022-10-16T00:45:28;94979.06;;;8.19;73.72
6136;BME280;24008;42.664;23.372;2022-10-16T00:47:56;95212.97;;;9.66;73.64
6136;BME280;24008;42.664;23.372;2022-10-16T00:50:26;95424.81;;;10.94;73.05
6136;BME280;24008;42.664;23.372;2022-10-16T00:52:54;95417.19;;;10.82;73.22
6136;BME280;24008;42.664;23.372;2022-10-16T00:55:22;95162.38;;;9.07;73.34
6136;BME280;24008;42.664;23.372;2022-10-16T00:57:49;95294.50;;;9.99;74.08
6136;BME280;24008;42.664;23.372;2022-10-16T01:00:21;94792.84;;;6.85;73.71
6136;BME280;24008;42.664;23.372;2022-10-16T01:02:52;95436.78;;;10.72;73.76
6136;BME280;24008;42.664;23.372;2022-10-16T01:05:20;94971.19;;;7.68;73.36
6136;BME280;24008;42.664;23.372;2022-10-16T01:07:53;95432.84;;;10.68;74.19
6136;BME280;24008;42.664;23.372;2022-10-16T01:10:27;95052.06;;;8.30;74.10
6136;BME280;24008;42.664;23.372;2022-10-16T01:13:01;95432.28;;;10.65;73.51
6136;BME280;24008;42.664;23.372;2022-10-16T01:15:34;95359.09;;;10.11;73.56
6136;BME280;24008;42.664;23.372;2022-10-16T01:18:08;94924.25;;;7.39;73.72
6136;BME280;24008;42.664;23.372;2022-10-16T01:20:42;95223.38;;;9.31;73.41
6136;BME280;24008;42.664;23.372;2022-10-16T01:23:21;95363.41;;;10.10;74.26
6136;BME280;24008;42.664;23.372;2022-10-16T01:26:03;95218.53;;;8.85;73.50
6136;BME280;24008;42.664;23.372;2022-10-16T01:28:39;95037.75;;;8.07;73.62
6136;BME280;24008;42.664;23.372;2022-10-16T01:31:09;94937.66;;;7.41;74.14
6136;BME280;24008;42.664;23.372;2022-10-16T01:33:40;95412.06;;;10.41;74.69
6136;BME280;24008;42.664;23.372;2022-10-16T01:36:11;95352.28;;;10.00;74.34
6136;BME280;24008;42.664;23.372;2022-10-16T01:38:40;95410.44;;;10.40;73.73
6136;BME280;24008;42.664;23.372;2022-10-16T01:41:10;95373.38;;;10.14;74.18
6136;BME280;24008;42.664;23.372;2022-10-16T01:43:41;95415.25;;;10.33;74.35
6136;BME280;24008;42.664;23.372;2022-10-16T01:46:10;95418.47;;;10.35;74.28
6136;BME280;24008;42.664;23.372;2022-10-16T01:48:38;95414.44;;;10.33;74.37
6136;BME280;24008;42.664;23.372;2022-10-16T01:51:08;94961.84;;;7.46;74.14
6136;BME280;24008;42.664;23.372;2022-10-16T01:53:36;95433.25;;;10.32;74.03
6136;BME280;24008;42.664;23.372;2022-10-16T01:56:06;95431.03;;;10.27;75.19
6136;BME280;24008;42.664;23.372;2022-10-16T01:58:40;95268.53;;;9.08;75.91
6136;BME280;24008;42.664;23.372;2022-10-16T02:01:10;94976.69;;;6.95;76.14
6136;BME280;24008;42.664;23.372;2022-10-16T02:03:40;95239.63;;;8.53;75.88
6136;BME280;24008;42.664;23.372;2022-10-16T02:06:09;95433.91;;;9.91;76.47
6136;BME280;24008;42.664;23.372;2022-10-16T02:08:36;95310.03;;;9.21;75.60
6136;BME280;24008;42.664;23.372;2022-10-16T02:11:04;94994.88;;;7.24;75.92
6136;BME280;24008;42.664;23.372;2022-10-16T02:13:34;94889.75;;;6.34;75.67
6136;BME280;24008;42.664;23.372;2022-10-16T02:16:05;94997.91;;;6.83;76.42
6136;BME280;24008;42.664;23.372;2022-10-16T02:18:32;95423.72;;;9.68;76.34
6136;BME280;24008;42.664;23.372;2022-10-16T02:21:01;95451.94;;;9.67;76.81
6136;BME280;24008;42.664;23.372;2022-10-16T02:23:35;95449.63;;;9.42;77.38
6136;BME280;24008;42.664;23.372;2022-10-16T02:26:07;95454.84;;;9.29;78.52
6136;BME280;24008;42.664;23.372;2022-10-16T02:28:38;95455.41;;;9.21;79.59
6136;BME280;24008;42.664;23.372;2022-10-16T02:31:10;95148.09;;;7.26;78.62
6136;BME280;24008;42.664;23.372;2022-10-16T02:33:40;95034.44;;;6.58;78.17
6136;BME280;24008;42.664;23.372;2022-10-16T02:36:09;95390.00;;;8.76;78.23
6136;BME280;24008;42.664;23.372;2022-10-16T02:38:36;95457.41;;;9.29;78.98
6136;BME280;24008;42.664;23.372;2022-10-16T02:41:04;95186.44;;;7.47;78.94
6136;BME280;24008;42.664;23.372;2022-10-16T02:43:31;95459.34;;;9.14;79.04
6136;BME280;24008;42.664;23.372;2022-10-16T02:45:59;95058.31;;;6.32;79.98
6136;BME280;24008;42.664;23.372;2022-10-16T02:48:27;95467.50;;;8.84;80.49
6136;BME280;24008;42.664;23.372;2022-10-16T02:50:54;95358.22;;;8.22;81.17
6136;BME280;24008;42.664;23.372;2022-10-16T02:53:20;95455.34;;;8.77;80.29
6136;BME280;24008;42.664;23.372;2022-10-16T02:55:47;95458.34;;;8.82;80.87
6136;BME280;24008;42.664;23.372;2022-10-16T02:58:14;95465.59;;;8.99;81.16
6136;BME280;24008;42.664;23.372;2022-10-16T03:00:41;95211.69;;;7.37;79.92
6136;BME280;24008;42.664;23.372;2022-10-16T03:03:08;95245.72;;;7.71;79.03
6136;BME280;24008;42.664;23.372;2022-10-16T03:05:36;95476.03;;;9.18;79.69
6136;BME280;24008;42.664;23.372;2022-10-16T03:08:03;95473.72;;;9.15;79.66
6136;BME280;24008;42.664;23.372;2022-10-16T03:10:30;95476.03;;;9.18;79.77
6136;BME280;24008;42.664;23.372;2022-10-16T03:12:57;94951.28;;;5.77;79.31
6136;BME280;24008;42.664;23.372;2022-10-16T03:15:24;95480.56;;;9.15;80.05
6136;BME280;24008;42.664;23.372;2022-10-16T03:17:51;95478.13;;;9.13;79.23
6136;BME280;24008;42.664;23.372;2022-10-16T03:20:18;95374.16;;;8.13;79.61
6136;BME280;24008;42.664;23.372;2022-10-16T03:22:46;95451.44;;;8.95;79.21
6136;BME280;24008;42.664;23.372;2022-10-16T03:25:12;95489.50;;;9.20;79.56
6136;BME280;24008;42.664;23.372;2022-10-16T03:27:39;95480.47;;;9.16;80.05
6136;BME280;24008;42.664;23.372;2022-10-16T03:30:07;95490.22;;;9.33;79.17
6136;BME280;24008;42.664;23.372;2022-10-16T03:32:34;95370.63;;;8.62;78.55
6136;BME280;24008;42.664;23.372;2022-10-16T03:35:01;95493.94;;;9.41;79.41
6136;BME280;24008;42.664;23.372;2022-10-16T03:37:28;95454.25;;;9.14;78.51
6136;BME280;24008;42.664;23.372;2022-10-16T03:39:56;95487.91;;;9.42;78.85
6136;BME280;24008;42.664;23.372;2022-10-16T03:42:22;95066.06;;;6.41;78.73
6136;BME280;24008;42.664;23.372;2022-10-16T03:44:49;95483.84;;;9.39;79.57
6136;BME280;24008;42.664;23.372;2022-10-16T03:47:16;95104.66;;;6.94;78.26
6136;BME280;24008;42.664;23.372;2022-10-16T03:49:46;95013.09;;;6.13;79.06
6136;BME280;24008;42.664;23.372;2022-10-16T03:52:13;95376.19;;;8.56;79.06
6136;BME280;24008;42.664;23.372;2022-10-16T03:54:40;95495.41;;;9.32;78.60
6136;BME280;24008;42.664;23.372;2022-10-16T03:57:08;95479.88;;;9.35;78.72
6136;BME280;24008;42.664;23.372;2022-10-16T03:59:35;95478.97;;;9.36;78.00
6136;BME280;24008;42.664;23.372;2022-10-16T04:02:01;95478.97;;;9.36;77.35
6136;BME280;24008;42.664;23.372;2022-10-16T04:04:28;95433.25;;;9.11;77.90
6136;BME280;24008;42.664;23.372;2022-10-16T04:06:55;95290.63;;;8.18;77.12
6136;BME280;24008;42.664;23.372;2022-10-16T04:09:22;95486.50;;;9.37;77.31
6136;BME280;24008;42.664;23.372;2022-10-16T04:11:48;95403.56;;;8.87;76.73
6136;BME280;24008;42.664;23.372;2022-10-16T04:14:17;95484.66;;;9.39;76.72
6136;BME280;24008;42.664;23.372;2022-10-16T04:16:44;95487.66;;;9.33;75.90
6136;BME280;24008;42.664;23.372;2022-10-16T04:19:11;95477.00;;;9.17;76.59
6136;BME280;24008;42.664;23.372;2022-10-16T04:21:37;95479.28;;;9.20;76.67
6136;BME280;24008;42.664;23.372;2022-10-16T04:24:04;95236.84;;;7.53;76.96
6136;BME280;24008;42.664;23.372;2022-10-16T04:26:31;94885.06;;;5.33;76.32
6136;BME280;24008;42.664;23.372;2022-10-16T04:28:58;95489.03;;;9.15;77.57
6136;BME280;24008;42.664;23.372;2022-10-16T04:31:26;95046.69;;;6.40;77.07
6136;BME280;24008;42.664;23.372;2022-10-16T04:33:53;95488.78;;;9.18;77.07
6136;BME280;24008;42.664;23.372;2022-10-16T04:36:19;95490.41;;;9.19;76.64
6136;BME280;24008;42.664;23.372;2022-10-16T04:38:46;95477.66;;;9.08;77.16
6136;BME280;24008;42.664;23.372;2022-10-16T04:41:13;95499.34;;;9.14;76.66
6136;BME280;24008;42.664;23.372;2022-10-16T04:43:40;95486.66;;;8.90;76.89
6136;BME280;24008;42.664;23.372;2022-10-16T04:46:06;95417.69;;;8.45;76.96
6136;BME280;24008;42.664;23.372;2022-10-16T04:48:35;95522.06;;;9.06;76.76
6136;BME280;24008;42.664;23.372;2022-10-16T04:51:01;95515.09;;;9.08;77.14
6136;BME280;24008;42.664;23.372;2022-10-16T04:53:28;95515.19;;;9.06;76.77
6136;BME280;24008;42.664;23.372;2022-10-16T04:55:55;95509.97;;;9.08;76.95
6136;BME280;24008;42.664;23.372;2022-10-16T04:58:22;95442.84;;;8.50;76.33
6136;BME280;24008;42.664;23.372;2022-10-16T05:00:49;95520.56;;;9.14;77.16
6136;BME280;24008;42.664;23.372;2022-10-16T05:03:16;94979.09;;;5.79;75.81
6136;BME280;24008;42.664;23.372;2022-10-16T05:05:45;95339.13;;;8.17;76.39
6136;BME280;24008;42.664;23.372;2022-10-16T05:08:12;95534.31;;;9.69;76.95
6136;BME280;24008;42.664;23.372;2022-10-16T05:10:41;95470.03;;;9.75;75.45
6136;BME280;24008;42.664;23.372;2022-10-16T05:13:08;95525.38;;;10.62;74.66
6136;BME280;24008;42.664;23.372;2022-10-16T05:15:34;95546.97;;;11.22;72.96
6136;BME280;24008;42.664;23.372;2022-10-16T05:18:01;95535.88;;;11.84;70.27
6136;BME280;24008;42.664;23.372;2022-10-16T05:20:28;95535.53;;;12.48;67.99
6136;BME280;24008;42.664;23.372;2022-10-16T05:22:56;95501.13;;;12.89;64.95
6136;BME280;24008;42.664;23.372;2022-10-16T05:25:24;95438.31;;;13.03;63.02
6136;BME280;24008;42.664;23.372;2022-10-16T05:27:50;95539.69;;;14.29;60.95
6136;BME280;24008;42.664;23.372;2022-10-16T05:30:17;95136.00;;;12.34;57.30
6136;BME280;24008;42.664;23.372;2022-10-16T05:32:46;95530.75;;;15.39;56.44
6136;BME280;24008;42.664;23.372;2022-10-16T05:35:13;95538.16;;;15.86;55.48
6136;BME280;24008;42.664;23.372;2022-10-16T05:37:40;95538.38;;;16.35;53.31
6136;BME280;24008;42.664;23.372;2022-10-16T05:40:09;95529.50;;;16.96;52.46
6136;BME280;24008;42.664;23.372;2022-10-16T05:42:36;95435.56;;;16.97;50.49
6136;BME280;24008;42.664;23.372;2022-10-16T05:45:04;95412.06;;;17.47;48.54
6136;BME280;24008;42.664;23.372;2022-10-16T05:47:31;95342.13;;;17.48;46.87
6136;BME280;24008;42.664;23.372;2022-10-16T05:49:57;95450.41;;;18.98;45.08
6136;BME280;24008;42.664;23.372;2022-10-16T05:52:24;95540.34;;;20.17;43.82
6136;BME280;24008;42.664;23.372;2022-10-16T05:54:51;95237.44;;;18.88;42.23
6136;BME280;24008;42.664;23.372;2022-10-16T05:57:19;95555.38;;;21.44;41.47
6136;BME280;24008;42.664;23.372;2022-10-16T05:59:46;94982.81;;;18.51;39.41
6136;BME280;24008;42.664;23.372;2022-10-16T06:02:13;95556.09;;;22.62;38.52
6136;BME280;24008;42.664;23.372;2022-10-16T06:04:40;95521.91;;;22.79;37.05
6136;BME280;24008;42.664;23.372;2022-10-16T06:07:07;95559.91;;;23.34;35.85
6136;BME280;24008;42.664;23.372;2022-10-16T06:09:33;95179.50;;;21.13;35.79
6136;BME280;24008;42.664;23.372;2022-10-16T06:12:00;95186.03;;;21.50;35.11
6136;BME280;24008;42.664;23.372;2022-10-16T06:14:28;95517.31;;;24.13;34.08
6136;BME280;24008;42.664;23.372;2022-10-16T06:16:55;95376.25;;;23.61;33.14
6136;BME280;24008;42.664;23.372;2022-10-16T06:19:22;95510.75;;;24.55;32.68
6136;BME280;24008;42.664;23.372;2022-10-16T06:21:49;95274.06;;;23.64;31.83
6136;BME280;24008;42.664;23.372;2022-10-16T06:24:16;95575.44;;;25.73;31.68
6136;BME280;24008;42.664;23.372;2022-10-16T06:26:42;95578.28;;;26.40;30.89
6136;BME280;24008;42.664;23.372;2022-10-16T06:29:09;95591.16;;;26.60;29.87
6136;BME280;24008;42.664;23.372;2022-10-16T06:31:37;95568.72;;;26.64;29.95
6136;BME280;24008;42.664;23.372;2022-10-16T06:34:04;95578.69;;;26.73;29.39
6136;BME280;24008;42.664;23.372;2022-10-16T06:36:34;95592.09;;;27.02;29.55
6136;BME280;24008;42.664;23.372;2022-10-16T06:39:01;95438.56;;;26.03;28.90
6136;BME280;24008;42.664;23.372;2022-10-16T06:41:28;95600.13;;;27.18;28.78
6136;BME280;24008;42.664;23.372;2022-10-16T06:43:55;95621.19;;;27.00;28.51
6136;BME280;24008;42.664;23.372;2022-10-16T06:46:23;94957.59;;;23.26;29.06
6136;BME280;24008;42.664;23.372;2022-10-16T06:48:52;95280.41;;;25.49;28.76
6136;BME280;24008;42.664;23.372;2022-10-16T06:51:20;95489.63;;;26.67;28.46
6136;BME280;24008;42.664;23.372;2022-10-16T06:53:48;95609.94;;;28.06;28.14
6136;BME280;24008;42.664;23.372;2022-10-16T06:56:17;95129.28;;;25.15;27.72
6136;BME280;24008;42.664;23.372;2022-10-16T06:58:44;95621.13;;;28.83;27.99
6136;BME280;24008;42.664;23.372;2022-10-16T07:01:11;95623.38;;;29.31;26.16
6136;BME280;24008;42.664;23.372;2022-10-16T07:03:40;95621.84;;;29.35;25.96
6136;BME280;24008;42.664;23.372;2022-10-16T07:06:10;95453.19;;;28.40;26.36
6136;BME280;24008;42.664;23.372;2022-10-16T07:08:39;95629.53;;;29.65;26.33
6136;BME280;24008;42.664;23.372;2022-10-16T07:11:07;95313.44;;;27.91;26.04
6136;BME280;24008;42.664;23.372;2022-10-16T07:13:35;95494.22;;;29.26;25.27
6136;BME280;24008;42.664;23.372;2022-10-16T07:16:04;95495.78;;;29.56;25.50
6136;BME280;24008;42.664;23.372;2022-10-16T07:18:32;95601.69;;;30.58;24.59
6136;BME280;24008;42.664;23.372;2022-10-16T07:21:03;95511.50;;;30.23;23.72
6136;BME280;24008;42.664;23.372;2022-10-16T07:23:31;95525.63;;;30.55;24.20
6136;BME280;24008;42.664;23.372;2022-10-16T07:25:58;95560.00;;;30.82;24.12
6136;BME280;24008;42.664;23.372;2022-10-16T07:28:25;95633.94;;;31.26;23.97
6136;BME280;24008;42.664;23.372;2022-10-16T07:30:52;95324.91;;;29.26;24.15
6136;BME280;24008;42.664;23.372;2022-10-16T07:33:19;95366.19;;;29.59;23.87
6136;BME280;24008;42.664;23.372;2022-10-16T07:35:49;95635.00;;;31.30;23.69
6136;BME280;24008;42.664;23.372;2022-10-16T07:38:16;95641.81;;;31.47;24.04
6136;BME280;24008;42.664;23.372;2022-10-16T07:40:45;95638.41;;;31.74;23.13
6136;BME280;24008;42.664;23.372;2022-10-16T07:43:12;95384.22;;;30.32;23.52
6136;BME280;24008;42.664;23.372;2022-10-16T07:45:46;95539.50;;;31.11;22.56
6136;BME280;24008;42.664;23.372;2022-10-16T07:48:13;95568.53;;;30.89;23.25
6136;BME280;24008;42.664;23.372;2022-10-16T07:50:40;95620.28;;;30.13;24.44
6136;BME280;24008;42.664;23.372;2022-10-16T07:53:07;95343.03;;;27.00;25.54
6136;BME280;24008;42.664;23.372;2022-10-16T07:55:34;94956.53;;;22.39;28.24
6136;BME280;24008;42.664;23.372;2022-10-16T07:58:02;95411.63;;;24.09;29.90
6136;BME280;24008;42.664;23.372;2022-10-16T08:00:29;95223.50;;;21.15;32.34
6136;BME280;24008;42.664;23.372;2022-10-16T08:02:57;95490.06;;;21.95;33.16
6136;BME280;24008;42.664;23.372;2022-10-16T08:05:25;95600.06;;;22.03;35.34
6136;BME280;24008;42.664;23.372;2022-10-16T08:07:52;95221.72;;;18.75;36.89
6136;BME280;24008;42.664;23.372;2022-10-16T08:10:21;95636.84;;;20.35;38.43
6136;BME280;24008;42.664;23.372;2022-10-16T08:12:49;95659.28;;;20.36;40.13
6136;BME280;24008;42.664;23.372;2022-10-16T08:15:17;95627.38;;;19.75;40.61
6136;BME280;24008;42.664;23.372;2022-10-16T08:17:44;95442.28;;;18.24;41.62
6136;BME280;24008;42.664;23.372;2022-10-16T08:20:11;95653.56;;;19.34;42.24
6136;BME280;24008;42.664;23.372;2022-10-16T08:22:38;94882.19;;;13.97;43.46
6136;BME280;24008;42.664;23.372;2022-10-16T08:25:05;95531.56;;;18.28;43.62
6136;BME280;24008;42.664;23.372;2022-10-16T08:27:32;95659.66;;;18.88;43.64
6136;BME280;24008;42.664;23.372;2022-10-16T08:29:59;94952.69;;;13.94;43.68
6136;BME280;24008;42.664;23.372;2022-10-16T08:32:27;95640.72;;;18.40;44.25
6136;BME280;24008;42.664;23.372;2022-10-16T08:34:54;95302.63;;;16.19;44.29
6136;BME280;24008;42.664;23.372;2022-10-16T08:37:21;95637.50;;;18.30;44.56
6136;BME280;24008;42.664;23.372;2022-10-16T08:39:48;95563.53;;;17.88;45.04
6136;BME280;24008;42.664;23.372;2022-10-16T08:42:26;95634.75;;;18.31;45.09
6136;BME280;24008;42.664;23.372;2022-10-16T08:47:49;95498.69;;;17.26;45.13
6136;BME280;24008;42.664;23.372;2022-10-16T08:50:22;95352.41;;;15.88;44.86
6136;BME280;24008;42.664;23.372;2022-10-16T08:52:50;95643.75;;;17.72;45.15
6136;BME280;24008;42.664;23.372;2022-10-16T08:55:28;95311.00;;;15.47;45.80
6136;BME280;24008;42.664;23.372;2022-10-16T08:57:55;95648.56;;;17.75;44.49
6136;BME280;24008;42.664;23.372;2022-10-16T09:00:23;95658.88;;;17.35;44.08
6136;BME280;24008;42.664;23.372;2022-10-16T09:02:55;95200.28;;;14.55;44.21
6136;BME280;24008;42.664;23.372;2022-10-16T09:05:57;95155.50;;;13.88;45.32
6136;BME280;24008;42.664;23.372;2022-10-16T09:08:32;95605.72;;;17.16;45.51
6136;BME280;24008;42.664;23.372;2022-10-16T09:11:07;95270.38;;;15.25;45.02
6136;BME280;24008;42.664;23.372;2022-10-16T09:13:42;95644.53;;;17.64;45.12
6136;BME280;24008;42.664;23.372;2022-10-16T09:16:18;95651.16;;;17.67;44.87
6136;BME280;24008;42.664;23.372;2022-10-16T09:18:54;95648.22;;;17.54;42.88
6136;BME280;24008;42.664;23.372;2022-10-16T09:21:24;95643.38;;;17.26;44.13
6136;BME280;24008;42.664;23.372;2022-10-16T09:23:52;95536.97;;;16.56;43.37
6136;BME280;24008;42.664;23.372;2022-10-16T09:26:20;95643.28;;;16.94;43.76
6136;BME280;24008;42.664;23.372;2022-10-16T09:28:47;95609.19;;;16.82;43.87
6136;BME280;24008;42.664;23.372;2022-10-16T09:31:17;95685.25;;;16.96;44.23
6136;BME280;24008;42.664;23.372;2022-10-16T09:33:48;95641.50;;;16.95;44.26
6136;BME280;24008;42.664;23.372;2022-10-16T09:36:17;95530.50;;;16.02;44.33
6136;BME280;24008;42.664;23.372;2022-10-16T09:38:44;95512.63;;;16.01;44.94
6136;BME280;24008;42.664;23.372;2022-10-16T09:41:17;95640.38;;;16.89;45.28
6136;BME280;24008;42.664;23.372;2022-10-16T09:43:52;95484.66;;;15.54;45.55
6136;BME280;24008;42.664;23.372;2022-10-16T09:46:31;95634.94;;;17.08;45.31
6136;BME280;24008;42.664;23.372;2022-10-16T09:48:59;95539.91;;;16.53;45.62
6136;BME280;24008;42.664;23.372;2022-10-16T09:51:30;95533.41;;;16.49;45.52
6136;BME280;24008;42.664;23.372;2022-10-16T09:53:59;95613.66;;;17.31;44.64
6136;BME280;24008;42.664;23.372;2022-10-16T09:56:28;95638.00;;;17.20;43.80
6136;BME280;24008;42.664;23.372;2022-10-16T09:58:56;95616.88;;;17.24;44.74
6136;BME280;24008;42.664;23.372;2022-10-16T10:01:28;95585.84;;;17.08;44.34
6136;BME280;24008;42.664;23.372;2022-10-16T10:03:57;95622.66;;;17.10;44.39
6136;BME280;24008;42.664;23.372;2022-10-16T10:06:29;95278.69;;;15.10;45.00
6136;BME280;24008;42.664;23.372;2022-10-16T10:09:04;95152.78;;;14.15;45.22
6136;BME280;24008;42.664;23.372;2022-10-16T10:11:43;95595.56;;;17.39;43.42
6136;BME280;24008;42.664;23.372;2022-10-16T10:14:27;95602.84;;;17.59;42.75
6136;BME280;24008;42.664;23.372;2022-10-16T10:17:14;95610.44;;;17.61;41.77
6136;BME280;24008;42.664;23.372;2022-10-16T10:19:47;95205.56;;;14.87;41.23
6136;BME280;24008;42.664;23.372;2022-10-16T10:22:40;95601.72;;;17.62;41.70
6136;BME280;24008;42.664;23.372;2022-10-16T10:25:32;95646.97;;;17.66;41.28
6136;BME280;24008;42.664;23.372;2022-10-16T10:28:14;95649.22;;;17.69;40.34
6136;BME280;24008;42.664;23.372;2022-10-16T10:30:51;95618.34;;;17.43;40.70
6136;BME280;24008;42.664;23.372;2022-10-16T10:33:28;95141.28;;;14.27;41.43
6136;BME280;24008;42.664;23.372;2022-10-16T10:36:08;95602.03;;;17.51;41.59
6136;BME280;24008;42.664;23.372;2022-10-16T10:38:47;94732.34;;;12.12;41.67
6136;BME280;24008;42.664;23.372;2022-10-16T10:41:32;95627.72;;;17.60;41.79
6136;BME280;24008;42.664;23.372;2022-10-16T10:44:07;95583.78;;;17.69;43.11
6136;BME280;24008;42.664;23.372;2022-10-16T10:46:41;94953.38;;;13.62;42.77
6136;BME280;24008;42.664;23.372;2022-10-16T10:49:29;95169.75;;;15.10;40.51
6136;BME280;24008;42.664;23.372;2022-10-16T10:52:06;95582.63;;;17.87;40.28
6136;BME280;24008;42.664;23.372;2022-10-16T10:54:49;95035.69;;;14.29;39.49
6136;BME280;24008;42.664;23.372;2022-10-16T10:57:22;95457.03;;;16.81;40.26
6136;BME280;24008;42.664;23.372;2022-10-16T11:00:16;95573.94;;;17.48;40.06
6136;BME280;24008;42.664;23.372;2022-10-16T11:02:48;95455.09;;;16.83;39.32
6136;BME280;24008;42.664;23.372;2022-10-16T11:05:33;95427.66;;;16.74;39.40
6136;BME280;24008;42.664;23.372;2022-10-16T11:08:08;95567.44;;;17.60;38.17
6136;BME280;24008;42.664;23.372;2022-10-16T11:10:44;95565.84;;;17.43;37.28
6136;BME280;24008;42.664;23.372;2022-10-16T11:13:21;95565.84;;;17.51;37.80
6136;BME280;24008;42.664;23.372;2022-10-16T11:15:53;95456.56;;;16.77;38.46
6136;BME280;24008;42.664;23.372;2022-10-16T11:18:24;95557.44;;;17.41;38.49
6136;BME280;24008;42.664;23.372;2022-10-16T11:20:56;95384.38;;;16.27;39.06
6136;BME280;24008;42.664;23.372;2022-10-16T11:23:27;95558.09;;;17.35;38.63
6136;BME280;24008;42.664;23.372;2022-10-16T11:26:00;95554.53;;;17.44;39.27
6136;BME280;24008;42.664;23.372;2022-10-16T11:28:33;95382.63;;;16.36;38.70
6136;BME280;24008;42.664;23.372;2022-10-16T11:31:07;95472.22;;;17.00;38.15
6136;BME280;24008;42.664;23.372;2022-10-16T11:33:39;95545.78;;;17.53;37.97
6136;BME280;24008;42.664;23.372;2022-10-16T11:36:12;95549.84;;;17.55;38.64
6136;BME280;24008;42.664;23.372;2022-10-16T11:38:47;95519.97;;;17.37;38.55
6136;BME280;24008;42.664;23.372;2022-10-16T11:41:24;95542.59;;;17.51;38.89
6136;BME280;24008;42.664;23.372;2022-10-16T11:44:06;95532.09;;;17.44;39.07
6136;BME280;24008;42.664;23.372;2022-10-16T11:46:38;95552.59;;;17.46;38.25
6136;BME280;24008;42.664;23.372;2022-10-16T11:49:10;95519.97;;;17.28;38.48
6136;BME280;24008;42.664;23.372;2022-10-16T11:51:43;95547.75;;;17.51;39.27
6136;BME280;24008;42.664;23.372;2022-10-16T11:54:20;95395.66;;;16.26;40.33
6136;BME280;24008;42.664;23.372;2022-10-16T11:56:52;95392.81;;;16.70;40.67
6136;BME280;24008;42.664;23.372;2022-10-16T11:59:26;95547.44;;;17.70;40.75
6136;BME280;24008;42.664;23.372;2022-10-16T12:02:03;95145.81;;;15.18;40.94
6136;BME280;24008;42.664;23.372;2022-10-16T12:04:42;95546.75;;;17.76;41.19
6136;BME280;24008;42.664;23.372;2022-10-16T12:07:13;95371.47;;;16.43;38.88
6136;BME280;24008;42.664;23.372;2022-10-16T12:09:41;95548.41;;;17.69;38.49
6136;BME280;24008;42.664;23.372;2022-10-16T12:15:19;95555.47;;;17.75;39.15
6136;BME280;24008;42.664;23.372;2022-10-16T12:17:46;95549.03;;;17.79;39.55
6136;BME280;24008;42.664;23.372;2022-10-16T12:20:25;95247.97;;;15.83;40.01
6136;BME280;24008;42.664;23.372;2022-10-16T12:22:54;95549.81;;;17.80;40.63
6136;BME280;24008;42.664;23.372;2022-10-16T12:25:25;95529.31;;;17.62;40.91
6136;BME280;24008;42.664;23.372;2022-10-16T12:27:59;95548.06;;;17.80;39.56
6136;BME280;24008;42.664;23.372;2022-10-16T12:30:30;95545.94;;;17.76;39.77
6136;BME280;24008;42.664;23.372;2022-10-16T12:32:59;95134.03;;;15.23;40.09
6136;BME280;24008;42.664;23.372;2022-10-16T12:35:28;95542.84;;;17.88;39.69
6136;BME280;24008;42.664;23.372;2022-10-16T12:38:05;95548.34;;;17.93;40.10
6136;BME280;24008;42.664;23.372;2022-10-16T12:40:34;95193.22;;;15.57;40.00
6136;BME280;24008;42.664;23.372;2022-10-16T12:43:13;95169.72;;;15.68;40.43
6136;BME280;24008;42.664;23.372;2022-10-16T12:46:01;95170.03;;;15.65;40.37
6136;BME280;24008;42.664;23.372;2022-10-16T12:48:29;95540.88;;;18.07;39.76
6136;BME280;24008;42.664;23.372;2022-10-16T12:50:56;95478.63;;;17.37;39.20
6136;BME280;24008;42.664;23.372;2022-10-16T12:53:25;95269.91;;;16.12;39.03
6136;BME280;24008;42.664;23.372;2022-10-16T12:56:03;95554.16;;;17.87;39.71
6136;BME280;24008;42.664;23.372;2022-10-16T12:58:44;95625.00;;;17.86;39.85
6136;BME280;24008;42.664;23.372;2022-10-16T13:01:33;95174.16;;;15.50;39.56
6136;BME280;24008;42.664;23.372;2022-10-16T13:04:23;95265.72;;;16.11;39.62
6136;BME280;24008;42.664;23.372;2022-10-16T13:07:08;95453.75;;;17.36;39.21
6136;BME280;24008;42.664;23.372;2022-10-16T13:09:52;95028.09;;;14.53;38.94
6136;BME280;24008;42.664;23.372;2022-10-16T13:12:34;95557.84;;;18.09;39.16
6136;BME280;24008;42.664;23.372;2022-10-16T13:15:22;95209.16;;;15.77;38.52
6136;BME280;24008;42.664;23.372;2022-10-16T13:18:00;95480.25;;;17.29;39.16
6136;BME280;24008;42.664;23.372;2022-10-16T13:20:34;95250.91;;;16.13;39.14
6136;BME280;24008;42.664;23.372;2022-10-16T13:23:09;95472.44;;;17.62;39.51
6136;BME280;24008;42.664;23.372;2022-10-16T13:25:49;95530.56;;;17.98;39.74